createdAt,value
2023-05-15T00:00:52.167Z,95070.47
2023-05-15T00:03:20.379Z,95083.19
2023-05-15T00:05:48.422Z,95101.59
2023-05-15T00:08:16.363Z,95092.88
2023-05-15T00:10:54.150Z,95091.53
2023-05-15T00:13:28.476Z,95032.25
2023-05-15T00:15:58.132Z,95082.38
2023-05-15T00:18:26.124Z,95048.06
2023-05-15T00:20:54.012Z,95108.28
2023-05-15T00:23:21.947Z,95109.31
2023-05-15T00:25:49.845Z,95091.56
2023-05-15T00:28:17.794Z,95125.44
2023-05-15T00:30:45.650Z,95097.16
2023-05-15T00:33:15.733Z,95111.91
2023-05-15T00:35:43.557Z,95107.47
2023-05-15T00:38:11.490Z,95134.53
2023-05-15T00:40:40.442Z,95132.59
2023-05-15T00:43:09.621Z,95130.44
2023-05-15T00:45:37.998Z,95118.41
2023-05-15T00:48:08.673Z,95097.59
2023-05-15T00:50:38.224Z,95114.59
2023-05-15T00:53:07.415Z,95130.66
2023-05-15T00:55:36.462Z,95121.34
2023-05-15T00:58:04.915Z,95129.44
2023-05-15T01:00:33.994Z,95103.03
2023-05-15T01:03:02.257Z,95115.47
2023-05-15T01:05:30.570Z,95140.59
2023-05-15T01:08:09.192Z,95126.75
2023-05-15T01:10:37.564Z,95076.13
2023-05-15T01:13:07.795Z,95112.31
2023-05-15T01:15:35.858Z,95105.28
2023-05-15T01:18:03.832Z,95130.31
2023-05-15T01:20:42.171Z,95124.66
2023-05-15T01:23:20.010Z,95113.53
2023-05-15T01:26:07.194Z,95096.34
2023-05-15T01:28:41.168Z,95107.81
2023-05-15T01:31:15.952Z,95083.72
2023-05-15T01:33:47.181Z,95103.59
2023-05-15T01:36:20.462Z,95103.00
2023-05-15T01:38:51.735Z,95085.38
2023-05-15T01:41:25.691Z,95089.41
2023-05-15T01:44:00.432Z,95093.59
2023-05-15T01:46:31.437Z,95061.41
2023-05-15T01:49:02.885Z,95080.25
2023-05-15T01:51:32.437Z,95085.03
2023-05-15T01:54:01.404Z,95058.38
2023-05-15T01:56:30.620Z,95089.34
2023-05-15T01:59:01.418Z,95075.72
2023-05-15T02:01:30.087Z,95077.69
2023-05-15T02:03:58.222Z,95083.41
2023-05-15T02:06:27.261Z,95099.34
2023-05-15T02:08:56.037Z,95112.81
2023-05-15T02:11:23.904Z,95074.16
2023-05-15T02:13:52.998Z,95100.06
2023-05-15T02:16:22.478Z,95083.66
2023-05-15T02:18:52.855Z,95108.50
2023-05-15T02:21:20.802Z,95096.19
2023-05-15T02:23:48.986Z,95092.09
2023-05-15T02:26:31.656Z,95077.78
2023-05-15T02:29:12.264Z,95082.50
2023-05-15T02:31:48.855Z,95067.34
2023-05-15T02:34:26.355Z,95056.19
2023-05-15T02:36:59.337Z,95048.38
2023-05-15T02:39:28.441Z,95052.13
2023-05-15T02:41:57.995Z,95052.59
2023-05-15T02:44:27.486Z,95060.41
2023-05-15T02:46:56.900Z,95038.59
2023-05-15T02:49:24.922Z,95053.50
2023-05-15T02:51:52.817Z,95074.00
2023-05-15T02:54:21.648Z,95070.66
2023-05-15T02:56:49.522Z,95075.47
2023-05-15T02:59:20.046Z,95067.38
2023-05-15T03:01:48.089Z,95010.16
2023-05-15T03:04:17.474Z,95060.44
2023-05-15T03:06:45.552Z,94983.66
2023-05-15T03:09:13.467Z,95035.69
2023-05-15T03:11:41.331Z,95070.88
2023-05-15T03:14:09.405Z,95038.28
2023-05-15T03:16:38.997Z,95086.16
2023-05-15T03:19:07.121Z,95093.03
2023-05-15T03:21:36.587Z,95029.66
2023-05-15T03:24:04.681Z,95094.47
2023-05-15T03:26:32.635Z,95068.28
2023-05-15T03:29:02.337Z,95107.78
2023-05-15T03:31:30.306Z,95095.47
2023-05-15T03:33:58.315Z,95076.81
2023-05-15T03:36:26.199Z,95077.25
2023-05-15T03:38:55.420Z,95084.28
2023-05-15T03:41:23.383Z,95075.28
2023-05-15T03:43:51.271Z,95076.66
2023-05-15T03:46:19.111Z,95071.28
2023-05-15T03:48:47.404Z,95072.03
2023-05-15T03:51:15.367Z,95080.91
2023-05-15T03:53:43.460Z,95085.16
2023-05-15T03:56:12.847Z,95071.78
2023-05-15T03:58:40.740Z,95072.25
2023-05-15T04:01:09.120Z,95100.66
2023-05-15T04:03:37.017Z,95088.94
2023-05-15T04:06:05.573Z,95080.22
2023-05-15T04:08:33.466Z,95067.63
2023-05-15T04:11:01.574Z,95073.03
2023-05-15T04:13:30.821Z,95016.44
2023-05-15T04:15:59.811Z,95032.38
2023-05-15T04:18:27.744Z,95061.28
2023-05-15T04:20:55.720Z,95087.34
2023-05-15T04:23:23.683Z,95090.78
2023-05-15T04:25:53.726Z,95093.06
2023-05-15T04:28:21.889Z,95097.41
2023-05-15T04:30:51.153Z,95102.81
2023-05-15T04:33:19.250Z,95098.00
2023-05-15T04:35:48.175Z,95091.22
2023-05-15T04:38:16.144Z,95076.19
2023-05-15T04:40:44.040Z,95083.88
2023-05-15T04:43:12.058Z,95080.84
2023-05-15T04:45:39.966Z,95081.59
2023-05-15T04:48:09.274Z,95067.91
2023-05-15T04:50:37.581Z,95057.66
2023-05-15T04:53:05.537Z,95032.94
2023-05-15T04:55:33.784Z,95048.00
2023-05-15T04:58:01.767Z,95051.47
2023-05-15T05:00:29.993Z,94979.22
2023-05-15T05:02:57.897Z,95068.84
2023-05-15T05:05:27.501Z,95076.66
2023-05-15T05:07:55.427Z,94983.50
2023-05-15T05:10:23.286Z,95070.22
2023-05-15T05:12:51.196Z,95067.94
2023-05-15T05:15:19.104Z,95051.09
2023-05-15T05:17:47.528Z,95052.72
2023-05-15T05:20:15.639Z,95024.47
2023-05-15T05:22:44.829Z,95054.84
2023-05-15T05:25:12.934Z,95049.59
2023-05-15T05:27:40.807Z,95049.88
2023-05-15T05:30:09.873Z,95050.19
2023-05-15T05:32:37.775Z,95051.25
2023-05-15T05:35:06.555Z,95062.09
2023-05-15T05:37:34.473Z,95064.66
2023-05-15T05:40:05.862Z,95067.38
2023-05-15T05:42:33.853Z,95034.88
2023-05-15T05:45:01.650Z,95058.34
2023-05-15T05:47:29.527Z,95037.56
2023-05-15T05:49:57.737Z,95053.25
2023-05-15T05:52:25.667Z,95050.22
2023-05-15T05:54:53.500Z,95052.78
2023-05-15T05:57:22.814Z,94971.84
2023-05-15T05:59:51.120Z,94992.88
2023-05-15T06:02:19.258Z,95054.03
2023-05-15T06:04:47.188Z,95042.53
2023-05-15T06:07:15.062Z,95041.94
2023-05-15T06:09:42.884Z,95044.16
2023-05-15T06:12:11.139Z,95051.53
2023-05-15T06:14:40.466Z,95054.97
2023-05-15T06:17:08.418Z,95049.38
2023-05-15T06:19:36.384Z,95040.94
2023-05-15T06:22:04.329Z,95041.81
2023-05-15T06:24:32.251Z,95033.66
2023-05-15T06:27:00.293Z,95018.81
2023-05-15T06:29:28.358Z,95032.16
2023-05-15T06:31:57.818Z,95030.78
2023-05-15T06:34:25.868Z,95015.88
2023-05-15T06:36:53.762Z,95031.84
2023-05-15T06:39:21.619Z,95019.72
2023-05-15T06:41:49.471Z,95045.28
2023-05-15T06:44:17.358Z,95024.13
2023-05-15T06:46:45.222Z,95051.25
2023-05-15T06:49:14.508Z,95048.28
2023-05-15T06:51:42.592Z,95007.72
2023-05-15T06:54:10.476Z,95049.41
2023-05-15T06:56:38.298Z,95052.75
2023-05-15T06:59:06.236Z,95047.75
2023-05-15T07:01:34.155Z,95044.91
2023-05-15T07:04:02.163Z,95055.19
2023-05-15T07:06:32.075Z,95050.59
2023-05-15T07:09:00.201Z,95057.66
2023-05-15T07:11:29.299Z,95046.78
2023-05-15T07:13:57.458Z,95027.88
2023-05-15T07:16:25.336Z,95038.00
2023-05-15T07:18:53.246Z,95028.28
2023-05-15T07:21:21.191Z,95017.56
2023-05-15T07:23:50.512Z,95027.69
2023-05-15T07:26:27.912Z,95030.97
2023-05-15T07:29:00.792Z,95032.03
2023-05-15T07:31:29.150Z,95043.28
2023-05-15T07:33:57.616Z,95017.00
2023-05-15T07:36:25.570Z,95042.34
2023-05-15T07:38:54.786Z,95040.47
2023-05-15T07:41:22.823Z,95039.72
2023-05-15T07:43:50.826Z,95038.78
2023-05-15T07:46:18.685Z,95022.16
2023-05-15T07:48:46.574Z,95041.59
2023-05-15T07:51:14.473Z,95035.28
2023-05-15T07:53:42.399Z,95031.25
2023-05-15T07:56:11.934Z,95024.13
2023-05-15T07:58:40.400Z,95037.81
2023-05-15T08:01:08.223Z,95032.56
2023-05-15T08:03:36.280Z,95016.84
2023-05-15T08:06:04.398Z,95048.69
2023-05-15T08:08:32.295Z,95069.47
2023-05-15T08:11:00.341Z,95055.19
2023-05-15T08:13:29.863Z,95066.84
2023-05-15T08:15:57.757Z,95048.47
2023-05-15T08:18:25.869Z,95065.34
2023-05-15T08:20:53.733Z,95065.09
2023-05-15T08:23:21.637Z,95061.44
2023-05-15T08:25:49.599Z,95049.97
2023-05-15T08:28:17.453Z,95013.00
2023-05-15T08:30:46.668Z,95034.03
2023-05-15T08:33:15.167Z,95048.03
2023-05-15T08:35:43.386Z,95044.41
2023-05-15T08:38:11.362Z,95040.25
2023-05-15T08:40:40.295Z,95049.56
2023-05-15T08:43:15.233Z,95036.69
2023-05-15T08:48:43.357Z,95036.13
2023-05-15T08:51:11.897Z,95031.81
2023-05-15T08:53:39.984Z,95036.84
2023-05-15T08:56:08.276Z,94968.41
2023-05-15T08:58:36.714Z,95030.69
2023-05-15T09:01:04.830Z,95020.75
2023-05-15T09:03:33.257Z,94996.75
2023-05-15T09:06:03.523Z,95000.50
2023-05-15T09:08:34.470Z,95017.09
2023-05-15T09:11:04.398Z,94999.19
2023-05-15T09:13:32.269Z,95021.28
2023-05-15T09:16:00.167Z,95031.22
2023-05-15T09:18:28.153Z,95009.09
2023-05-15T09:20:56.437Z,95016.31
2023-05-15T09:23:27.208Z,94937.28
2023-05-15T09:25:57.002Z,94993.75
2023-05-15T09:28:30.029Z,94992.44
2023-05-15T09:31:00.562Z,94971.06
2023-05-15T09:33:30.535Z,94966.00
2023-05-15T09:35:58.465Z,94967.13
2023-05-15T09:38:27.832Z,94980.44
2023-05-15T09:41:03.903Z,94985.38
2023-05-15T09:43:35.181Z,94985.41
2023-05-15T09:46:03.281Z,94974.00
2023-05-15T09:48:32.460Z,94907.81
2023-05-15T09:51:00.393Z,94952.53
2023-05-15T09:53:29.878Z,94895.03
2023-05-15T09:55:57.846Z,94915.66
2023-05-15T09:58:25.811Z,94891.09
2023-05-15T10:00:53.659Z,94940.56
2023-05-15T10:03:22.074Z,94949.22
2023-05-15T10:05:49.996Z,94877.25
2023-05-15T10:08:27.112Z,94944.16
2023-05-15T10:10:59.738Z,94938.28
2023-05-15T10:13:29.183Z,94887.13
2023-05-15T10:15:58.934Z,94947.59
2023-05-15T10:18:31.616Z,94943.81
2023-05-15T10:21:04.129Z,94949.34
2023-05-15T10:23:34.685Z,94896.75
2023-05-15T10:26:07.946Z,94951.53
2023-05-15T10:28:37.342Z,94968.25
2023-05-15T10:31:06.943Z,94959.44
2023-05-15T10:33:38.253Z,94946.75
2023-05-15T10:36:07.554Z,94961.19
2023-05-15T10:38:37.096Z,94961.75
2023-05-15T10:41:17.102Z,94971.41
2023-05-15T10:43:46.770Z,94990.75
2023-05-15T10:46:15.212Z,94986.94
2023-05-15T10:48:43.318Z,94985.84
2023-05-15T10:51:16.701Z,94981.84
2023-05-15T10:53:44.907Z,94965.72
2023-05-15T10:56:17.914Z,94961.19
2023-05-15T10:58:48.085Z,94989.94
2023-05-15T11:01:29.603Z,94982.19
2023-05-15T11:04:08.672Z,94921.78
2023-05-15T11:06:37.640Z,94990.97
2023-05-15T11:09:36.953Z,94989.53
2023-05-15T11:12:08.193Z,94974.75
2023-05-15T11:14:41.372Z,94973.19
2023-05-15T11:17:10.895Z,94974.44
2023-05-15T11:19:42.169Z,94980.53
2023-05-15T11:22:21.102Z,94952.81
2023-05-15T11:24:52.249Z,94959.16
2023-05-15T11:27:23.286Z,94972.31
2023-05-15T11:30:15.390Z,94967.06
2023-05-15T11:33:01.784Z,94971.28
2023-05-15T11:35:32.603Z,94970.94
2023-05-15T11:38:04.495Z,94977.88
2023-05-15T11:40:44.479Z,94974.78
2023-05-15T11:43:21.336Z,94954.53
2023-05-15T11:45:52.847Z,94956.28
2023-05-15T11:48:21.814Z,94940.13
2023-05-15T11:50:50.759Z,94908.69
2023-05-15T11:53:19.762Z,94885.84
2023-05-15T11:55:47.937Z,94886.50
2023-05-15T11:58:17.570Z,94916.28
2023-05-15T12:00:48.337Z,94938.72
2023-05-15T12:03:17.826Z,94932.81
2023-05-15T12:05:57.561Z,94933.00
2023-05-15T12:08:28.148Z,94922.50
2023-05-15T12:10:59.382Z,94913.38
2023-05-15T12:13:27.286Z,94933.41
2023-05-15T12:15:57.327Z,94918.88
2023-05-15T12:18:25.993Z,94925.75
2023-05-15T12:20:55.070Z,94872.69
2023-05-15T12:23:25.351Z,94862.78
2023-05-15T12:26:00.659Z,94924.75
2023-05-15T12:28:30.246Z,94911.06
2023-05-15T12:31:00.624Z,94892.13
2023-05-15T12:33:28.923Z,94878.78
2023-05-15T12:36:01.263Z,94874.31
2023-05-15T12:38:30.846Z,94853.34
2023-05-15T12:40:58.990Z,94873.00
2023-05-15T12:43:27.491Z,94843.94
2023-05-15T12:45:56.510Z,94843.59
2023-05-15T12:48:32.253Z,94848.59
2023-05-15T12:51:06.590Z,94825.78
2023-05-15T12:53:35.344Z,94830.44
2023-05-15T12:56:04.805Z,94829.91
2023-05-15T12:58:32.914Z,94831.16
2023-05-15T13:01:02.955Z,94809.16
2023-05-15T13:03:32.574Z,94849.06
2023-05-15T13:06:03.376Z,94844.84
2023-05-15T13:08:31.549Z,94852.06
2023-05-15T13:11:00.952Z,94849.41
2023-05-15T13:13:49.952Z,94841.03
2023-05-15T13:16:22.709Z,94829.59
2023-05-15T13:18:52.258Z,94799.00
2023-05-15T13:21:20.438Z,94821.59
2023-05-15T13:23:48.434Z,94828.31
2023-05-15T13:26:16.494Z,94828.84
2023-05-15T13:28:44.313Z,94831.34
2023-05-15T13:31:12.516Z,94836.56
2023-05-15T13:33:40.477Z,94832.81
2023-05-15T13:36:10.319Z,94841.06
2023-05-15T13:38:38.256Z,94851.19
2023-05-15T13:41:06.270Z,94815.66
2023-05-15T13:43:34.147Z,94854.47
2023-05-15T13:46:02.390Z,94846.75
2023-05-15T13:48:30.233Z,94862.41
2023-05-15T13:50:58.045Z,94855.72
2023-05-15T13:53:27.506Z,94862.44
2023-05-15T13:55:55.397Z,94847.25
2023-05-15T13:58:26.623Z,94852.72
2023-05-15T14:00:54.800Z,94851.50
2023-05-15T14:03:22.758Z,94867.66
2023-05-15T14:05:51.331Z,94822.34
2023-05-15T14:08:19.240Z,94866.66
2023-05-15T14:10:48.457Z,94839.81
2023-05-15T14:13:16.349Z,94861.91
2023-05-15T14:15:44.475Z,94859.44
2023-05-15T14:18:12.355Z,94851.75
2023-05-15T14:20:40.221Z,94849.25
2023-05-15T14:23:08.498Z,94848.75
2023-05-15T14:25:36.359Z,94845.03
2023-05-15T14:28:05.593Z,94850.50
2023-05-15T14:30:33.523Z,94851.94
2023-05-15T14:33:01.565Z,94843.22
2023-05-15T14:35:29.590Z,94846.22
2023-05-15T14:37:58.119Z,94835.50
2023-05-15T14:40:26.173Z,94844.44
2023-05-15T14:42:54.119Z,94814.31
2023-05-15T14:45:23.819Z,94838.72
2023-05-15T14:47:51.834Z,94827.25
2023-05-15T14:50:19.722Z,94820.56
2023-05-15T14:52:47.774Z,94817.84
2023-05-15T14:55:16.035Z,94776.91
2023-05-15T14:57:49.239Z,94798.25
2023-05-15T15:00:18.238Z,94810.97
2023-05-15T15:02:47.577Z,94824.38
2023-05-15T15:05:15.917Z,94820.66
2023-05-15T15:08:04.455Z,94752.78
2023-05-15T15:10:33.216Z,94759.72
2023-05-15T15:13:01.435Z,94795.06
2023-05-15T15:15:29.969Z,94800.03
2023-05-15T15:17:59.881Z,94791.06
2023-05-15T15:20:28.693Z,94787.09
2023-05-15T15:22:57.259Z,94748.78
2023-05-15T15:25:25.364Z,94789.56
2023-05-15T15:27:53.310Z,94703.06
2023-05-15T15:30:21.169Z,94768.22
2023-05-15T15:32:49.120Z,94787.56
2023-05-15T15:35:18.830Z,94737.38
2023-05-15T15:37:46.678Z,94783.59
2023-05-15T15:40:14.646Z,94789.81
2023-05-15T15:42:42.535Z,94743.81
2023-05-15T15:45:10.630Z,94759.72
2023-05-15T15:47:38.597Z,94789.53
2023-05-15T15:50:07.216Z,94803.19
2023-05-15T15:52:36.569Z,94795.72
2023-05-15T15:55:04.765Z,94695.03
2023-05-15T15:57:34.144Z,94780.31
2023-05-15T16:00:02.149Z,94798.94
2023-05-15T16:02:30.259Z,94787.44
2023-05-15T16:04:58.174Z,94785.00
2023-05-15T16:07:26.117Z,94800.06
2023-05-15T16:10:04.159Z,94779.56
2023-05-15T16:12:40.735Z,94794.66
2023-05-15T16:15:21.560Z,94799.13
2023-05-15T16:17:52.712Z,94813.16
2023-05-15T16:20:21.189Z,94781.44
2023-05-15T16:22:49.079Z,94757.72
2023-05-15T16:25:18.350Z,94780.34
2023-05-15T16:27:46.313Z,94834.28
2023-05-15T16:30:15.283Z,94834.50
2023-05-15T16:32:43.630Z,94830.75
2023-05-15T16:35:11.680Z,94832.38
2023-05-15T16:37:39.559Z,94827.91
2023-05-15T16:40:08.783Z,94706.81
2023-05-15T16:42:38.981Z,94844.78
2023-05-15T16:45:08.362Z,94770.97
2023-05-15T16:47:38.415Z,94791.66
2023-05-15T16:50:07.401Z,94838.41
2023-05-15T16:52:35.925Z,94819.38
2023-05-15T16:55:04.403Z,94840.06
2023-05-15T16:57:32.303Z,94824.69
2023-05-15T17:00:01.569Z,94834.50
2023-05-15T17:02:29.515Z,94822.66
2023-05-15T17:04:57.516Z,94806.63
2023-05-15T17:07:25.375Z,94839.22
2023-05-15T17:09:54.911Z,94852.38
2023-05-15T17:12:23.793Z,94853.31
2023-05-15T17:14:51.742Z,94850.84
2023-05-15T17:17:21.065Z,94823.94
2023-05-15T17:19:48.947Z,94848.13
2023-05-15T17:22:16.904Z,94842.00
2023-05-15T17:24:51.484Z,94814.00
2023-05-15T17:27:20.712Z,94845.84
2023-05-15T17:29:48.870Z,94842.50
2023-05-15T17:32:18.156Z,94818.91
2023-05-15T17:34:47.810Z,94874.94
2023-05-15T17:37:15.933Z,94869.25
2023-05-15T17:39:44.206Z,94869.72
2023-05-15T17:42:12.181Z,94869.66
2023-05-15T17:44:40.106Z,94866.13
2023-05-15T17:47:08.564Z,94870.16
2023-05-15T17:49:36.754Z,94840.03
2023-05-15T17:52:06.765Z,94888.34
2023-05-15T17:54:34.726Z,94899.53
2023-05-15T17:57:02.969Z,94890.94
2023-05-15T17:59:31.261Z,94901.59
2023-05-15T18:01:59.366Z,94893.88
2023-05-15T18:04:27.406Z,94913.00
2023-05-15T18:06:55.373Z,94902.13
2023-05-15T18:09:24.905Z,94889.16
2023-05-15T18:11:52.943Z,94867.59
2023-05-15T18:14:20.829Z,94918.28
2023-05-15T18:16:48.706Z,94896.19
2023-05-15T18:19:16.743Z,94789.84
2023-05-15T18:21:44.819Z,94793.28
2023-05-15T18:24:12.725Z,94859.63
2023-05-15T18:26:42.230Z,94919.84
2023-05-15T18:29:10.169Z,94918.28
2023-05-15T18:31:38.625Z,94888.97
2023-05-15T18:34:06.730Z,94884.53
2023-05-15T18:36:34.924Z,94884.78
2023-05-15T18:39:03.704Z,94883.81
2023-05-15T18:41:31.928Z,94896.97
2023-05-15T18:44:01.225Z,94880.56
2023-05-15T18:46:31.262Z,94864.94
2023-05-15T18:48:59.754Z,94886.84
2023-05-15T18:51:27.867Z,94656.56
2023-05-15T18:53:55.774Z,94880.22
2023-05-15T18:56:25.041Z,94879.78
2023-05-15T18:58:52.984Z,94894.28
2023-05-15T19:01:22.385Z,94887.25
2023-05-15T19:03:50.460Z,94878.28
2023-05-15T19:06:20.367Z,94868.63
2023-05-15T19:08:48.952Z,94908.75
2023-05-15T19:11:17.825Z,94864.28
2023-05-15T19:13:45.807Z,94910.13
2023-05-15T19:16:13.886Z,94909.41
2023-05-15T19:18:43.241Z,94910.81
2023-05-15T19:21:11.371Z,94909.06
2023-05-15T19:23:39.245Z,94919.94
2023-05-15T19:26:07.161Z,94919.31
2023-05-15T19:28:35.648Z,94925.94
2023-05-15T19:31:04.421Z,94927.28
2023-05-15T19:33:32.833Z,94937.09
2023-05-15T19:36:02.339Z,94938.59
2023-05-15T19:38:30.173Z,94933.16
2023-05-15T19:40:58.048Z,94904.28
2023-05-15T19:43:25.972Z,94936.00
2023-05-15T19:45:54.227Z,94938.47
2023-05-15T19:48:22.157Z,94933.16
2023-05-15T19:50:50.091Z,94937.06
2023-05-15T19:53:19.400Z,94943.81
2023-05-15T19:55:48.008Z,94939.31
2023-05-15T19:58:15.870Z,94949.63
2023-05-15T20:00:43.795Z,94928.94
2023-05-15T20:03:11.735Z,94939.41
2023-05-15T20:05:41.294Z,94946.06
2023-05-15T20:08:09.350Z,94945.94
2023-05-15T20:10:38.728Z,94929.25
2023-05-15T20:13:06.631Z,94931.59
2023-05-15T20:15:35.225Z,94905.59
2023-05-15T20:18:03.144Z,94888.91
2023-05-15T20:20:31.342Z,94902.81
2023-05-15T20:22:59.528Z,94925.81
2023-05-15T20:25:29.139Z,94914.25
2023-05-15T20:27:58.933Z,94874.69
2023-05-15T20:30:28.844Z,94892.03
2023-05-15T20:32:56.964Z,94913.00
2023-05-15T20:35:25.419Z,94908.97
2023-05-15T20:37:53.590Z,94905.66
2023-05-15T20:40:23.068Z,94905.53
2023-05-15T20:42:51.048Z,94899.81
2023-05-15T20:45:20.858Z,94885.56
2023-05-15T20:47:50.290Z,94875.00
2023-05-15T20:50:19.269Z,94879.56
2023-05-15T20:52:47.276Z,94871.28
2023-05-15T20:55:17.214Z,94836.78
2023-05-15T20:57:45.480Z,94867.06
2023-05-15T21:00:15.444Z,94843.56
2023-05-15T21:02:46.073Z,94867.09
2023-05-15T21:05:14.040Z,94835.59
2023-05-15T21:07:42.193Z,94855.72
2023-05-15T21:10:10.676Z,94854.69
2023-05-15T21:12:38.539Z,94859.28
2023-05-15T21:15:07.629Z,94861.69
2023-05-15T21:17:35.540Z,94857.31
2023-05-15T21:20:05.680Z,94878.16
2023-05-15T21:22:33.522Z,94871.69
2023-05-15T21:25:01.404Z,94871.47
2023-05-15T21:27:29.278Z,94866.84
2023-05-15T21:29:57.308Z,94874.53
2023-05-15T21:32:25.381Z,94867.06
2023-05-15T21:34:53.504Z,94868.34
2023-05-15T21:37:22.734Z,94863.28
2023-05-15T21:39:50.625Z,94852.78
2023-05-15T21:42:18.477Z,94862.72
2023-05-15T21:44:46.361Z,94814.44
2023-05-15T21:47:14.261Z,94859.31
2023-05-15T21:49:42.077Z,94856.09
2023-05-15T21:52:10.071Z,94850.75
2023-05-15T21:54:39.345Z,94839.41
2023-05-15T21:57:07.162Z,94853.53
2023-05-15T21:59:34.973Z,94835.31
2023-05-15T22:02:02.985Z,94838.94
2023-05-15T22:04:30.896Z,94855.25
2023-05-15T22:06:58.753Z,94859.19
2023-05-15T22:09:32.885Z,94849.53
2023-05-15T22:12:02.130Z,94835.38
2023-05-15T22:14:30.051Z,94862.38
2023-05-15T22:16:58.000Z,94863.97
2023-05-15T22:19:33.147Z,94869.75
2023-05-15T22:22:02.007Z,94870.75
2023-05-15T22:24:30.010Z,94875.13
2023-05-15T22:26:57.852Z,94872.66
2023-05-15T22:29:27.211Z,94871.34
2023-05-15T22:31:55.265Z,94874.28
2023-05-15T22:34:23.114Z,94853.22
2023-05-15T22:36:51.029Z,94838.78
2023-05-15T22:39:18.904Z,94852.78
2023-05-15T22:41:47.646Z,94856.28
2023-05-15T22:44:15.701Z,94816.66
2023-05-15T22:46:45.170Z,94857.09
2023-05-15T22:49:23.442Z,94860.38
2023-05-15T22:51:51.498Z,94865.63
2023-05-15T22:54:21.744Z,94809.06
2023-05-15T22:56:50.253Z,94859.31
2023-05-15T22:59:18.365Z,94818.66
2023-05-15T23:01:49.217Z,94851.94
2023-05-15T23:04:18.260Z,94851.50
2023-05-15T23:06:46.369Z,94841.19
2023-05-15T23:09:14.306Z,94845.84
2023-05-15T23:11:42.296Z,94847.75
2023-05-15T23:14:12.148Z,94846.06
2023-05-15T23:16:40.090Z,94842.84
2023-05-15T23:19:09.874Z,94852.25
2023-05-15T23:21:38.003Z,94851.44
2023-05-15T23:24:06.491Z,94844.22
2023-05-15T23:26:34.506Z,94840.25
2023-05-15T23:29:02.683Z,94844.38
2023-05-15T23:31:31.067Z,94768.97
2023-05-15T23:33:59.065Z,94831.19
2023-05-15T23:36:28.375Z,94850.09
2023-05-15T23:38:56.290Z,94843.16
2023-05-15T23:41:24.253Z,94841.38
2023-05-15T23:43:52.303Z,94844.53
2023-05-15T23:46:20.304Z,94826.16
2023-05-15T23:48:48.445Z,94843.72
2023-05-15T23:51:16.490Z,94843.44
2023-05-15T23:53:45.826Z,94839.50
2023-05-15T23:56:13.885Z,94819.63
2023-05-15T23:58:42.440Z,94833.94
